sensor_id;sensor_type;location;lat;lon;timestamp;pressure;altitude;pressure_sealevel;temperature;humidity
63111;BME280;49201;53.426;10.300;2023-02-28T00:01:08;103286.00;;;1.81;100.00
63111;BME280;49201;53.426;10.300;2023-02-28T00:03:34;103288.13;;;1.76;100.00
63111;BME280;49201;53.426;10.300;2023-02-28T00:06:01;103292.13;;;1.74;100.00
63111;BME280;49201;53.426;10.300;2023-02-28T00:08:27;103292.16;;;1.66;100.00
63111;BME280;49201;53.426;10.300;2023-02-28T00:10:53;103283.13;;;1.59;100.00
63111;BME280;49201;53.426;10.300;2023-02-28T00:13:18;103287.72;;;1.55;100.00
63111;BME280;49201;53.426;10.300;2023-02-28T00:15:44;103283.59;;;1.38;100.00
63111;BME280;49201;53.426;10.300;2023-02-28T00:18:10;103284.34;;;1.37;100.00
63111;BME280;49201;53.426;10.300;2023-02-28T00:20:37;103291.50;;;1.33;100.00
63111;BME280;49201;53.426;10.300;2023-02-28T00:23:02;103292.69;;;1.28;100.00
63111;BME280;49201;53.426;10.300;2023-02-28T00:25:28;103287.66;;;1.19;100.00
63111;BME280;49201;53.426;10.300;2023-02-28T00:27:53;103290.34;;;1.12;100.00
63111;BME280;49201;53.426;10.300;2023-02-28T00:30:21;103290.47;;;1.05;100.00
63111;BME280;49201;53.426;10.300;2023-02-28T00:32:48;103290.94;;;0.93;100.00
63111;BME280;49201;53.426;10.300;2023-02-28T00:35:14;103295.53;;;0.97;100.00
63111;BME280;49201;53.426;10.300;2023-02-28T00:37:40;103299.53;;;0.95;100.00
63111;BME280;49201;53.426;10.300;2023-02-28T00:40:07;103290.34;;;0.95;100.00
63111;BME280;49201;53.426;10.300;2023-02-28T00:42:36;103295.53;;;0.97;100.00
63111;BME280;49201;53.426;10.300;2023-02-28T00:45:02;103294.81;;;0.89;100.00
63111;BME280;49201;53.426;10.300;2023-02-28T00:47:29;103296.28;;;0.79;100.00
63111;BME280;49201;53.426;10.300;2023-02-28T00:49:55;103307.06;;;0.69;100.00
63111;BME280;49201;53.426;10.300;2023-02-28T00:52:20;103301.91;;;0.68;100.00
63111;BME280;49201;53.426;10.300;2023-02-28T00:54:46;103307.53;;;0.65;100.00
63111;BME280;49201;53.426;10.300;2023-02-28T00:57:13;103314.78;;;0.62;100.00
63111;BME280;49201;53.426;10.300;2023-02-28T00:59:39;103315.97;;;0.66;100.00
63111;BME280;49201;53.426;10.300;2023-02-28T01:02:05;103313.19;;;0.63;100.00
63111;BME280;49201;53.426;10.300;2023-02-28T01:04:30;103314.91;;;0.55;100.00
63111;BME280;49201;53.426;10.300;2023-02-28T01:06:59;103313.88;;;0.45;100.00
63111;BME280;49201;53.426;10.300;2023-02-28T01:09:24;103321.56;;;0.38;100.00
63111;BME280;49201;53.426;10.300;2023-02-28T01:11:50;103322.72;;;0.32;100.00
63111;BME280;49201;53.426;10.300;2023-02-28T01:14:16;103318.13;;;0.28;100.00
63111;BME280;49201;53.426;10.300;2023-02-28T01:16:44;103318.88;;;0.28;100.00
63111;BME280;49201;53.426;10.300;2023-02-28T01:19:10;103314.84;;;0.29;100.00
63111;BME280;49201;53.426;10.300;2023-02-28T01:21:37;103318.88;;;0.28;100.00
63111;BME280;49201;53.426;10.300;2023-02-28T01:24:04;103317.09;;;0.27;100.00
63111;BME280;49201;53.426;10.300;2023-02-28T01:26:30;103311.75;;;0.23;100.00
63111;BME280;49201;53.426;10.300;2023-02-28T01:28:56;103315.59;;;0.20;100.00
63111;BME280;49201;53.426;10.300;2023-02-28T01:31:22;103315.00;;;0.14;100.00
63111;BME280;49201;53.426;10.300;2023-02-28T01:33:48;103318.81;;;0.10;100.00
63111;BME280;49201;53.426;10.300;2023-02-28T01:36:19;103310.97;;;0.08;100.00
63111;BME280;49201;53.426;10.300;2023-02-28T01:38:45;103307.22;;;0.04;100.00
63111;BME280;49201;53.426;10.300;2023-02-28T01:41:26;103312.72;;;0.00;100.00
63111;BME280;49201;53.426;10.300;2023-02-28T01:46:59;103313.72;;;-0.07;100.00
63111;BME280;49201;53.426;10.300;2023-02-28T01:49:24;103308.03;;;-0.13;100.00
63111;BME280;49201;53.426;10.300;2023-02-28T01:51:54;103310.28;;;-0.16;100.00
63111;BME280;49201;53.426;10.300;2023-02-28T01:54:29;103314.56;;;-0.15;100.00
63111;BME280;49201;53.426;10.300;2023-02-28T01:57:00;103312.47;;;-0.19;100.00
63111;BME280;49201;53.426;10.300;2023-02-28T01:59:34;103309.34;;;-0.25;100.00
63111;BME280;49201;53.426;10.300;2023-02-28T02:02:01;103314.47;;;-0.32;100.00
63111;BME280;49201;53.426;10.300;2023-02-28T02:04:34;103315.22;;;-0.33;100.00
63111;BME280;49201;53.426;10.300;2023-02-28T02:07:02;103313.28;;;-0.35;100.00
63111;BME280;49201;53.426;10.300;2023-02-28T02:09:28;103304.94;;;-0.43;100.00
63111;BME280;49201;53.426;10.300;2023-02-28T02:11:55;103314.13;;;-0.43;100.00
63111;BME280;49201;53.426;10.300;2023-02-28T02:17:58;103312.59;;;-0.50;100.00
63111;BME280;49201;53.426;10.300;2023-02-28T02:23:40;103305.16;;;-0.57;100.00
63111;BME280;49201;53.426;10.300;2023-02-28T02:32:28;103302.31;;;-0.60;100.00
63111;BME280;49201;53.426;10.300;2023-02-28T02:37:42;103306.75;;;-0.66;100.00
63111;BME280;49201;53.426;10.300;2023-02-28T02:40:21;103308.50;;;-0.65;100.00
63111;BME280;49201;53.426;10.300;2023-02-28T02:43:07;103311.09;;;-0.72;100.00
63111;BME280;49201;53.426;10.300;2023-02-28T02:45:39;103309.03;;;-0.76;100.00
63111;BME280;49201;53.426;10.300;2023-02-28T02:48:09;103310.91;;;-0.82;100.00
63111;BME280;49201;53.426;10.300;2023-02-28T02:50:42;103309.75;;;-0.77;100.00
63111;BME280;49201;53.426;10.300;2023-02-28T02:53:10;103313.41;;;-0.82;100.00
63111;BME280;49201;53.426;10.300;2023-02-28T02:55:44;103303.31;;;-0.90;100.00
63111;BME280;49201;53.426;10.300;2023-02-28T02:58:16;103301.38;;;-0.93;100.00
63111;BME280;49201;53.426;10.300;2023-02-28T03:00:47;103310.13;;;-1.05;100.00
63111;BME280;49201;53.426;10.300;2023-02-28T03:03:18;103309.66;;;-1.09;100.00
63111;BME280;49201;53.426;10.300;2023-02-28T03:05:50;103309.16;;;-1.14;100.00
63111;BME280;49201;53.426;10.300;2023-02-28T03:08:16;103311.69;;;-1.14;100.00
63111;BME280;49201;53.426;10.300;2023-02-28T03:10:43;103303.91;;;-1.24;100.00
63111;BME280;49201;53.426;10.300;2023-02-28T03:14:06;103294.03;;;-1.22;100.00
63111;BME280;49201;53.426;10.300;2023-02-28T03:27:31;103311.03;;;-1.35;100.00
63111;BME280;49201;53.426;10.300;2023-02-28T03:30:06;103302.13;;;-1.40;100.00
63111;BME280;49201;53.426;10.300;2023-02-28T03:35:37;103314.78;;;-1.47;100.00
63111;BME280;49201;53.426;10.300;2023-02-28T03:38:16;103318.72;;;-1.49;100.00
63111;BME280;49201;53.426;10.300;2023-02-28T03:40:48;103318.09;;;-1.55;100.00
63111;BME280;49201;53.426;10.300;2023-02-28T03:43:22;103322.94;;;-1.57;100.00
63111;BME280;49201;53.426;10.300;2023-02-28T03:45:50;103317.44;;;-1.61;100.00
63111;BME280;49201;53.426;10.300;2023-02-28T03:48:21;103325.38;;;-1.65;100.00
63111;BME280;49201;53.426;10.300;2023-02-28T03:50:51;103321.97;;;-1.66;100.00
63111;BME280;49201;53.426;10.300;2023-02-28T03:53:24;103326.66;;;-1.69;100.00
63111;BME280;49201;53.426;10.300;2023-02-28T03:55:57;103322.34;;;-1.70;100.00
63111;BME280;49201;53.426;10.300;2023-02-28T04:01:03;103335.38;;;-1.81;100.00
63111;BME280;49201;53.426;10.300;2023-02-28T04:03:37;103324.28;;;-1.83;100.00
63111;BME280;49201;53.426;10.300;2023-02-28T04:06:04;103319.69;;;-1.87;100.00
63111;BME280;49201;53.426;10.300;2023-02-28T04:08:31;103322.19;;;-1.87;100.00
63111;BME280;49201;53.426;10.300;2023-02-28T04:11:01;103320.53;;;-1.86;100.00
63111;BME280;49201;53.426;10.300;2023-02-28T04:13:29;103328.47;;;-1.90;100.00
63111;BME280;49201;53.426;10.300;2023-02-28T04:15:54;103329.38;;;-1.90;100.00
63111;BME280;49201;53.426;10.300;2023-02-28T04:18:20;103334.03;;;-1.93;100.00
63111;BME280;49201;53.426;10.300;2023-02-28T04:20:45;103332.09;;;-1.95;100.00
63111;BME280;49201;53.426;10.300;2023-02-28T04:23:11;103331.78;;;-1.98;100.00
63111;BME280;49201;53.426;10.300;2023-02-28T04:25:36;103331.78;;;-1.98;100.00
63111;BME280;49201;53.426;10.300;2023-02-28T04:28:01;103334.59;;;-1.95;100.00
63111;BME280;49201;53.426;10.300;2023-02-28T04:30:27;103331.38;;;-1.94;100.00
63111;BME280;49201;53.426;10.300;2023-02-28T04:32:52;103327.25;;;-1.94;100.00
63111;BME280;49201;53.426;10.300;2023-02-28T04:35:18;103320.28;;;-1.96;100.00
63111;BME280;49201;53.426;10.300;2023-02-28T04:37:43;103319.56;;;-1.95;100.00
63111;BME280;49201;53.426;10.300;2023-02-28T04:40:09;103326.78;;;-1.98;100.00
63111;BME280;49201;53.426;10.300;2023-02-28T04:42:34;103316.44;;;-2.08;100.00
63111;BME280;49201;53.426;10.300;2023-02-28T04:45:04;103322.75;;;-2.12;100.00
63111;BME280;49201;53.426;10.300;2023-02-28T04:47:30;103321.91;;;-2.19;100.00
63111;BME280;49201;53.426;10.300;2023-02-28T04:49:56;103330.28;;;-2.12;100.00
63111;BME280;49201;53.426;10.300;2023-02-28T04:52:21;103329.66;;;-2.02;100.00
63111;BME280;49201;53.426;10.300;2023-02-28T04:54:47;103323.19;;;-2.00;100.00
63111;BME280;49201;53.426;10.300;2023-02-28T04:57:12;103325.22;;;-2.05;100.00
63111;BME280;49201;53.426;10.300;2023-02-28T04:59:38;103325.06;;;-2.13;100.00
63111;BME280;49201;53.426;10.300;2023-02-28T05:02:03;103325.88;;;-2.21;100.00
63111;BME280;49201;53.426;10.300;2023-02-28T05:04:35;103339.53;;;-2.26;100.00
63111;BME280;49201;53.426;10.300;2023-02-28T05:07:01;103334.66;;;-2.25;100.00
63111;BME280;49201;53.426;10.300;2023-02-28T05:09:28;103340.06;;;-2.29;100.00
63111;BME280;49201;53.426;10.300;2023-02-28T05:11:54;103339.78;;;-2.39;100.00
63111;BME280;49201;53.426;10.300;2023-02-28T05:14:20;103339.59;;;-2.40;100.00
63111;BME280;49201;53.426;10.300;2023-02-28T05:16:45;103339.66;;;-2.47;100.00
63111;BME280;49201;53.426;10.300;2023-02-28T05:19:11;103337.00;;;-2.49;100.00
63111;BME280;49201;53.426;10.300;2023-02-28T05:24:07;103339.66;;;-2.47;100.00
63111;BME280;49201;53.426;10.300;2023-02-28T05:26:35;103348.84;;;-2.55;100.00
63111;BME280;49201;53.426;10.300;2023-02-28T05:29:01;103353.88;;;-2.55;100.00
63111;BME280;49201;53.426;10.300;2023-02-28T05:31:27;103350.09;;;-2.51;100.00
63111;BME280;49201;53.426;10.300;2023-02-28T05:33:52;103351.19;;;-2.56;100.00
63111;BME280;49201;53.426;10.300;2023-02-28T05:36:18;103353.69;;;-2.56;100.00
63111;BME280;49201;53.426;10.300;2023-02-28T05:38:47;103347.63;;;-2.58;100.00
63111;BME280;49201;53.426;10.300;2023-02-28T05:41:13;103349.44;;;-2.64;100.00
63111;BME280;49201;53.426;10.300;2023-02-28T05:43:39;103348.56;;;-2.65;100.00
63111;BME280;49201;53.426;10.300;2023-02-28T05:46:06;103352.31;;;-2.68;100.00
63111;BME280;49201;53.426;10.300;2023-02-28T05:48:32;103353.03;;;-2.69;100.00
63111;BME280;49201;53.426;10.300;2023-02-28T05:50:58;103356.28;;;-2.70;100.00
63111;BME280;49201;53.426;10.300;2023-02-28T05:53:24;103360.06;;;-2.74;100.00
63111;BME280;49201;53.426;10.300;2023-02-28T05:55:49;103353.47;;;-2.80;100.00
63111;BME280;49201;53.426;10.300;2023-02-28T05:58:15;103361.00;;;-2.87;100.00
63111;BME280;49201;53.426;10.300;2023-02-28T06:00:40;103362.78;;;-2.86;100.00
63111;BME280;49201;53.426;10.300;2023-02-28T06:03:05;103360.13;;;-2.88;100.00
63111;BME280;49201;53.426;10.300;2023-02-28T06:05:31;103367.44;;;-2.82;100.00
63111;BME280;49201;53.426;10.300;2023-02-28T06:07:57;103375.16;;;-2.88;100.00
63111;BME280;49201;53.426;10.300;2023-02-28T06:10:22;103369.06;;;-2.90;100.00
63111;BME280;49201;53.426;10.300;2023-02-28T06:12:48;103373.03;;;-2.92;100.00
63111;BME280;49201;53.426;10.300;2023-02-28T06:15:14;103360.84;;;-2.89;100.00
63111;BME280;49201;53.426;10.300;2023-02-28T06:17:41;103369.44;;;-2.94;100.00
63111;BME280;49201;53.426;10.300;2023-02-28T06:20:07;103367.50;;;-2.96;100.00
63111;BME280;49201;53.426;10.300;2023-02-28T06:22:37;103377.38;;;-2.98;100.00
63111;BME280;49201;53.426;10.300;2023-02-28T06:25:04;103378.06;;;-2.99;100.00
63111;BME280;49201;53.426;10.300;2023-02-28T06:27:30;103381.66;;;-2.97;100.00
63111;BME280;49201;53.426;10.300;2023-02-28T06:29:56;103389.88;;;-2.98;100.00
63111;BME280;49201;53.426;10.300;2023-02-28T06:32:22;103388.06;;;-2.99;100.00
63111;BME280;49201;53.426;10.300;2023-02-28T06:34:47;103384.53;;;-3.01;100.00
63111;BME280;49201;53.426;10.300;2023-02-28T06:37:13;103388.25;;;-2.97;100.00
63111;BME280;49201;53.426;10.300;2023-02-28T06:39:38;103386.47;;;-2.98;100.00
63111;BME280;49201;53.426;10.300;2023-02-28T06:42:04;103390.75;;;-2.97;100.00
63111;BME280;49201;53.426;10.300;2023-02-28T06:44:29;103390.41;;;-2.93;100.00
63111;BME280;49201;53.426;10.300;2023-02-28T06:47:01;103394.84;;;-2.91;100.00
63111;BME280;49201;53.426;10.300;2023-02-28T06:49:32;103394.50;;;-2.94;100.00
63111;BME280;49201;53.426;10.300;2023-02-28T06:51:58;103396.31;;;-2.93;100.00
63111;BME280;49201;53.426;10.300;2023-02-28T06:54:23;103391.31;;;-2.93;100.00
63111;BME280;49201;53.426;10.300;2023-02-28T06:56:49;103401.66;;;-2.90;100.00
63111;BME280;49201;53.426;10.300;2023-02-28T06:59:14;103401.28;;;-2.86;100.00
63111;BME280;49201;53.426;10.300;2023-02-28T07:01:40;103395.00;;;-2.82;100.00
63111;BME280;49201;53.426;10.300;2023-02-28T07:04:06;103402.50;;;-2.75;100.00
63111;BME280;49201;53.426;10.300;2023-02-28T07:06:32;103403.34;;;-2.68;100.00
63111;BME280;49201;53.426;10.300;2023-02-28T07:08:58;103402.44;;;-2.61;100.00
63111;BME280;49201;53.426;10.300;2023-02-28T07:11:27;103402.38;;;-2.54;100.00
63111;BME280;49201;53.426;10.300;2023-02-28T07:13:56;103397.69;;;-2.44;100.00
63111;BME280;49201;53.426;10.300;2023-02-28T07:16:23;103403.13;;;-2.26;100.00
63111;BME280;49201;53.426;10.300;2023-02-28T07:18:49;103403.75;;;-2.13;100.00
63111;BME280;49201;53.426;10.300;2023-02-28T07:21:15;103405.13;;;-2.01;100.00
63111;BME280;49201;53.426;10.300;2023-02-28T07:23:40;103400.13;;;-1.85;100.00
63111;BME280;49201;53.426;10.300;2023-02-28T07:26:10;103399.31;;;-1.70;100.00
63111;BME280;49201;53.426;10.300;2023-02-28T07:28:38;103402.19;;;-1.52;100.00
63111;BME280;49201;53.426;10.300;2023-02-28T07:31:07;103401.81;;;-1.32;100.00
63111;BME280;49201;53.426;10.300;2023-02-28T07:33:32;103400.88;;;-1.10;100.00
63111;BME280;49201;53.426;10.300;2023-02-28T07:36:07;103400.22;;;-0.85;100.00
63111;BME280;49201;53.426;10.300;2023-02-28T07:38:34;103398.31;;;-0.64;100.00
63111;BME280;49201;53.426;10.300;2023-02-28T07:41:00;103397.72;;;-0.46;100.00
63111;BME280;49201;53.426;10.300;2023-02-28T07:43:30;103398.00;;;-0.27;100.00
63111;BME280;49201;53.426;10.300;2023-02-28T07:46:02;103390.41;;;-0.12;100.00
63111;BME280;49201;53.426;10.300;2023-02-28T07:48:27;103393.41;;;0.01;100.00
63111;BME280;49201;53.426;10.300;2023-02-28T07:50:56;103406.09;;;0.18;100.00
63111;BME280;49201;53.426;10.300;2023-02-28T07:53:21;103396.81;;;0.34;100.00
63111;BME280;49201;53.426;10.300;2023-02-28T07:55:47;103391.41;;;0.56;100.00
63111;BME280;49201;53.426;10.300;2023-02-28T07:58:13;103394.00;;;0.73;100.00
63111;BME280;49201;53.426;10.300;2023-02-28T08:00:38;103389.75;;;0.97;100.00
63111;BME280;49201;53.426;10.300;2023-02-28T08:03:03;103392.69;;;1.10;100.00
63111;BME280;49201;53.426;10.300;2023-02-28T08:05:29;103396.13;;;1.28;100.00
63111;BME280;49201;53.426;10.300;2023-02-28T08:07:56;103398.19;;;1.49;100.00
63111;BME280;49201;53.426;10.300;2023-02-28T08:10:22;103395.97;;;1.69;100.00
63111;BME280;49201;53.426;10.300;2023-02-28T08:12:49;103390.09;;;1.87;100.00
63111;BME280;49201;53.426;10.300;2023-02-28T08:15:14;103396.38;;;1.90;100.00
63111;BME280;49201;53.426;10.300;2023-02-28T08:17:40;103388.00;;;2.08;100.00
63111;BME280;49201;53.426;10.300;2023-02-28T08:20:06;103387.41;;;2.38;100.00
63111;BME280;49201;53.426;10.300;2023-02-28T08:22:31;103393.44;;;2.57;100.00
63111;BME280;49201;53.426;10.300;2023-02-28T08:24:57;103392.09;;;2.79;100.00
63111;BME280;49201;53.426;10.300;2023-02-28T08:27:22;103390.75;;;3.01;100.00
63111;BME280;49201;53.426;10.300;2023-02-28T08:29:48;103390.50;;;3.16;100.00
63111;BME280;49201;53.426;10.300;2023-02-28T08:32:13;103402.34;;;3.26;100.00
63111;BME280;49201;53.426;10.300;2023-02-28T08:34:39;103399.69;;;3.53;100.00
63111;BME280;49201;53.426;10.300;2023-02-28T08:37:05;103392.84;;;3.70;100.00
63111;BME280;49201;53.426;10.300;2023-02-28T08:39:34;103398.31;;;4.03;100.00
63111;BME280;49201;53.426;10.300;2023-02-28T08:41:59;103398.47;;;4.15;100.00
63111;BME280;49201;53.426;10.300;2023-02-28T08:44:25;103395.00;;;4.43;100.00
63111;BME280;49201;53.426;10.300;2023-02-28T08:46:50;103403.25;;;4.50;100.00
63111;BME280;49201;53.426;10.300;2023-02-28T08:49:15;103405.78;;;4.60;100.00
63111;BME280;49201;53.426;10.300;2023-02-28T08:51:41;103399.72;;;4.78;100.00
63111;BME280;49201;53.426;10.300;2023-02-28T08:54:08;103396.16;;;4.96;100.00
63111;BME280;49201;53.426;10.300;2023-02-28T08:56:33;103400.09;;;5.13;100.00
63111;BME280;49201;53.426;10.300;2023-02-28T08:58:59;103386.69;;;5.55;100.00
63111;BME280;49201;53.426;10.300;2023-02-28T09:01:28;103393.66;;;5.99;100.00
63111;BME280;49201;53.426;10.300;2023-02-28T09:03:55;103392.72;;;6.30;100.00
63111;BME280;49201;53.426;10.300;2023-02-28T09:06:23;103394.78;;;6.67;100.00
63111;BME280;49201;53.426;10.300;2023-02-28T09:08:49;103387.59;;;7.18;100.00
63111;BME280;49201;53.426;10.300;2023-02-28T09:11:15;103390.16;;;7.18;100.00
63111;BME280;49201;53.426;10.300;2023-02-28T09:13:41;103385.63;;;7.60;100.00
63111;BME280;49201;53.426;10.300;2023-02-28T09:16:10;103381.28;;;8.18;100.00
63111;BME280;49201;53.426;10.300;2023-02-28T09:18:37;103374.88;;;10.13;88.66
63111;BME280;49201;53.426;10.300;2023-02-28T09:21:04;103354.69;;;13.74;56.36
63111;BME280;49201;53.426;10.300;2023-02-28T09:23:30;103341.00;;;16.64;46.15
63111;BME280;49201;53.426;10.300;2023-02-28T09:25:56;103339.16;;;18.48;39.72
63111;BME280;49201;53.426;10.300;2023-02-28T09:28:22;103341.22;;;19.65;37.23
63111;BME280;49201;53.426;10.300;2023-02-28T09:30:51;103340.22;;;19.97;34.57
63111;BME280;49201;53.426;10.300;2023-02-28T09:33:18;103348.78;;;19.53;34.46
63111;BME280;49201;53.426;10.300;2023-02-28T09:35:46;103342.34;;;21.06;32.97
63111;BME280;49201;53.426;10.300;2023-02-28T09:38:12;103331.75;;;22.90;30.27
63111;BME280;49201;53.426;10.300;2023-02-28T09:40:45;103333.09;;;23.49;29.17
63111;BME280;49201;53.426;10.300;2023-02-28T09:43:14;103321.28;;;24.33;28.03
63111;BME280;49201;53.426;10.300;2023-02-28T09:45:42;103330.97;;;24.55;27.68
63111;BME280;49201;53.426;10.300;2023-02-28T09:48:26;103329.91;;;24.02;27.48
63111;BME280;49201;53.426;10.300;2023-02-28T09:51:02;103332.31;;;23.63;27.21
63111;BME280;49201;53.426;10.300;2023-02-28T09:53:32;103326.19;;;23.63;26.91
63111;BME280;49201;53.426;10.300;2023-02-28T09:56:03;103319.59;;;25.55;26.23
63111;BME280;49201;53.426;10.300;2023-02-28T09:58:39;103326.50;;;25.82;25.70
63111;BME280;49201;53.426;10.300;2023-02-28T10:03:58;103322.97;;;25.86;23.47
63111;BME280;49201;53.426;10.300;2023-02-28T10:06:28;103324.78;;;25.72;24.20
63111;BME280;49201;53.426;10.300;2023-02-28T10:09:05;103314.50;;;26.92;22.34
63111;BME280;49201;53.426;10.300;2023-02-28T10:11:35;103327.03;;;26.63;21.99
63111;BME280;49201;53.426;10.300;2023-02-28T10:14:10;103325.94;;;26.85;21.87
63111;BME280;49201;53.426;10.300;2023-02-28T10:16:42;103313.53;;;27.88;21.12
63111;BME280;49201;53.426;10.300;2023-02-28T10:22:00;103313.66;;;27.73;21.86
63111;BME280;49201;53.426;10.300;2023-02-28T10:24:30;103313.59;;;27.82;21.23
63111;BME280;49201;53.426;10.300;2023-02-28T10:27:09;103317.06;;;26.98;21.86
63111;BME280;49201;53.426;10.300;2023-02-28T10:29:37;103320.28;;;27.35;20.58
63111;BME280;49201;53.426;10.300;2023-02-28T10:32:05;103308.78;;;28.14;20.52
63111;BME280;49201;53.426;10.300;2023-02-28T10:34:31;103314.75;;;27.56;20.91
63111;BME280;49201;53.426;10.300;2023-02-28T10:36:58;103312.53;;;27.17;19.71
63111;BME280;49201;53.426;10.300;2023-02-28T10:39:40;103309.84;;;27.24;19.67
63111;BME280;49201;53.426;10.300;2023-02-28T10:42:20;103307.94;;;28.12;19.37
63111;BME280;49201;53.426;10.300;2023-02-28T10:44:46;103305.91;;;28.31;19.20
63111;BME280;49201;53.426;10.300;2023-02-28T10:47:16;103299.94;;;28.18;19.52
63111;BME280;49201;53.426;10.300;2023-02-28T10:49:50;103305.94;;;28.29;18.57
63111;BME280;49201;53.426;10.300;2023-02-28T10:52:36;103296.09;;;28.95;18.46
63111;BME280;49201;53.426;10.300;2023-02-28T10:55:22;103303.28;;;28.87;18.43
63111;BME280;49201;53.426;10.300;2023-02-28T10:57:49;103301.25;;;28.51;17.79
63111;BME280;49201;53.426;10.300;2023-02-28T11:00:25;103300.78;;;29.28;17.98
63111;BME280;49201;53.426;10.300;2023-02-28T11:02:51;103297.22;;;29.30;18.86
63111;BME280;49201;53.426;10.300;2023-02-28T11:05:32;103308.66;;;26.48;19.09
63111;BME280;49201;53.426;10.300;2023-02-28T11:08:19;103299.78;;;28.86;18.94
63111;BME280;49201;53.426;10.300;2023-02-28T11:10:53;103299.97;;;29.24;18.42
63111;BME280;49201;53.426;10.300;2023-02-28T11:13:21;103308.47;;;28.91;19.48
63111;BME280;49201;53.426;10.300;2023-02-28T11:15:55;103305.63;;;29.94;18.10
63111;BME280;49201;53.426;10.300;2023-02-28T11:18:36;103304.34;;;29.72;18.00
63111;BME280;49201;53.426;10.300;2023-02-28T11:21:04;103296.38;;;30.53;17.46
63111;BME280;49201;53.426;10.300;2023-02-28T11:23:32;103295.41;;;30.92;17.53
63111;BME280;49201;53.426;10.300;2023-02-28T11:26:02;103295.25;;;29.85;17.36
63111;BME280;49201;53.426;10.300;2023-02-28T11:28:35;103296.53;;;30.07;18.00
63111;BME280;49201;53.426;10.300;2023-02-28T11:33:52;103290.41;;;31.14;17.27
63111;BME280;49201;53.426;10.300;2023-02-28T11:36:19;103294.84;;;29.62;18.07
63111;BME280;49201;53.426;10.300;2023-02-28T11:38:47;103290.31;;;30.85;16.71
63111;BME280;49201;53.426;10.300;2023-02-28T11:47:26;103276.25;;;31.77;16.29
63111;BME280;49201;53.426;10.300;2023-02-28T11:52:59;103271.31;;;31.94;16.74
63111;BME280;49201;53.426;10.300;2023-02-28T11:55:28;103269.59;;;31.34;17.17
63111;BME280;49201;53.426;10.300;2023-02-28T12:01:12;103262.38;;;33.04;16.90
63111;BME280;49201;53.426;10.300;2023-02-28T12:03:43;103255.81;;;32.89;15.92
63111;BME280;49201;53.426;10.300;2023-02-28T12:06:28;103252.22;;;32.11;16.54
63111;BME280;49201;53.426;10.300;2023-02-28T12:11:54;103256.59;;;31.84;17.13
63111;BME280;49201;53.426;10.300;2023-02-28T12:17:16;103245.94;;;32.67;15.67
63111;BME280;49201;53.426;10.300;2023-02-28T12:20:16;103235.75;;;32.81;15.74
63111;BME280;49201;53.426;10.300;2023-02-28T12:22:47;103240.13;;;32.30;16.23
63111;BME280;49201;53.426;10.300;2023-02-28T12:27:45;103232.94;;;33.10;15.02
63111;BME280;49201;53.426;10.300;2023-02-28T12:30:39;103225.41;;;32.47;16.41
63111;BME280;49201;53.426;10.300;2023-02-28T12:33:10;103221.00;;;32.46;15.72
63111;BME280;49201;53.426;10.300;2023-02-28T12:35:58;103220.75;;;32.28;16.07
63111;BME280;49201;53.426;10.300;2023-02-28T12:38:25;103220.31;;;30.95;16.58
63111;BME280;49201;53.426;10.300;2023-02-28T12:41:10;103221.75;;;29.63;17.17
63111;BME280;49201;53.426;10.300;2023-02-28T12:43:42;103215.50;;;30.77;17.30
63111;BME280;49201;53.426;10.300;2023-02-28T12:46:14;103219.91;;;30.43;17.39
63111;BME280;49201;53.426;10.300;2023-02-28T12:49:02;103211.44;;;31.28;16.36
63111;BME280;49201;53.426;10.300;2023-02-28T12:51:30;103206.22;;;30.26;16.57
63111;BME280;49201;53.426;10.300;2023-02-28T12:59:25;103193.09;;;27.28;19.39
63111;BME280;49201;53.426;10.300;2023-02-28T13:10:53;103189.28;;;23.79;21.61
63111;BME280;49201;53.426;10.300;2023-02-28T13:13:23;103187.50;;;23.63;22.54
63111;BME280;49201;53.426;10.300;2023-02-28T13:16:06;103184.25;;;22.55;23.37
63111;BME280;49201;53.426;10.300;2023-02-28T13:18:45;103190.50;;;22.75;23.02
63111;BME280;49201;53.426;10.300;2023-02-28T13:21:24;103201.28;;;21.42;23.99
63111;BME280;49201;53.426;10.300;2023-02-28T13:26:21;103190.84;;;20.84;24.39
63111;BME280;49201;53.426;10.300;2023-02-28T13:29:35;103209.19;;;18.75;26.40
63111;BME280;49201;53.426;10.300;2023-02-28T13:34:37;103213.59;;;18.79;27.46
63111;BME280;49201;53.426;10.300;2023-02-28T13:47:44;103220.03;;;17.38;30.27
63111;BME280;49201;53.426;10.300;2023-02-28T13:58:48;103209.06;;;18.05;30.32
63111;BME280;49201;53.426;10.300;2023-02-28T14:01:44;103217.34;;;17.92;29.17
63111;BME280;49201;53.426;10.300;2023-02-28T14:07:02;103204.75;;;17.75;29.44
63111;BME280;49201;53.426;10.300;2023-02-28T14:09:45;103213.06;;;17.35;29.82
63111;BME280;49201;53.426;10.300;2023-02-28T14:17:54;103212.41;;;17.14;29.94
63111;BME280;49201;53.426;10.300;2023-02-28T14:20:22;103207.72;;;16.76;31.32
63111;BME280;49201;53.426;10.300;2023-02-28T14:33:27;103217.13;;;16.73;30.42
63111;BME280;49201;53.426;10.300;2023-02-28T14:38:25;103213.38;;;16.65;30.97
63111;BME280;49201;53.426;10.300;2023-02-28T14:40:56;103214.66;;;16.77;31.52
63111;BME280;49201;53.426;10.300;2023-02-28T14:43:27;103213.81;;;16.52;30.67
63111;BME280;49201;53.426;10.300;2023-02-28T14:45:58;103219.59;;;17.23;30.66
63111;BME280;49201;53.426;10.300;2023-02-28T14:48:25;103217.78;;;16.67;30.98
63111;BME280;49201;53.426;10.300;2023-02-28T14:51:01;103215.78;;;16.85;30.03
63111;BME280;49201;53.426;10.300;2023-02-28T14:53:30;103222.34;;;17.01;30.38